Ripley, Canada
Current Conditions -  °F | °C
As of 3:00 PM on Monday 26 Jan 2015 (Local Time) from CYVV Reporting Station
Scattered Clouds Scattered Clouds  
Wind Chill:   Ceiling: Unl
Heat Index: 16°   Visibility: 15mi
Dew Point:   Wind: 13mph
Humidity: 62%   Direction: 60°ENE
Pressure: 29.97"   Gusts: NA
Location:  44.07°N, 81.58°W
Report Text: CYVV 262000Z 06011KT 15SM FEW025 SCT250 M09/M15 A2997 RMK NS1CI3 SLP164
Loading
Personal Weather Stations






























Interactive Weather Map New forecast layout! Learn more

10-Day Weather Forecast

Advertisements
Track Severe Weather on mobile